Ash Fork, AZ

1:18 AM MST on April 26, 2015 (GMT -0700)
K6QQQ Ranch, rural Coconino County AZ, 3 miles north of Ash Fork, AZ | | Change Station
CLOSE
Current Station
Personal Weather Station
Location: Ash Fork, AZ
Elevation: 5364 ft
Nearby Weather Stations

Elev 5364 ft 35.27 °N, 112.49 °W | Updated 9 seconds ago

Overcast
Overcast
39.6 °F
Feels Like 40 °F
N
0.2
Wind Variable Wind from ESE
Gusts 2.5 mph

Today
High -- | Low -- °F
--% Chance of Precip.
Yesterday
High -- | Low -- °F
Precip. -- in
5:45 AM 7:12 PM
First Quarter, 53% visible
Pressure 29.84 in
Visibility 6.0 miles
Clouds Overcast 800 ft
Windchill 40 °F
Dew Point 39 °F
Humidity 99%
Rainfall 0.00 in
Snow Depth Not available.
UV 0.0 out of 12
Pollen 8.30 out of 12
Air Quality Not available.
Flu Activity Local Activity
METAR KCMR 260815Z AUTO 00000KT 6SM -RA OVC008 00/M00 A2984 RMK AO2

More Conditions Fewer Conditions

Pressure 29.84 in
Visibility 6.0 miles
Clouds Overcast 800 ft
Windchill 40 °F
Dew Point 39 °F
Humidity 99%
Rainfall 0.00 in
Snow Depth Not available.
UV 0.0 out of 12
Pollen 8.30 out of 12
Air Quality Not available.
Flu Activity Local Activity
METAR KCMR 260815Z AUTO 00000KT 6SM -RA OVC008 00/M00 A2984 RMK AO2

More Conditions Fewer Conditions

The full scope of the disaster following a powerful 7.8-magnitude earthquake in Nepal may not come into view for days, but global charities are already sending emergency aid. Click to see how you can help.

10-Day Weather Forecast

Almanac

Astronomy

Apr. 26, 2015 Rise Set
Actual Time
Civil Twilight
Nautical Twilight
Astronomical Twilight
Moon
Length of Visible Light
Length of Day
Tomorrow will be .
, % of the Moon is Illuminated

Today's Extremes

State Highs State Lows

Community

WunderPhotos

Upload Photos

1,816,953 photos uploaded!

WunderBlogs® & News

Nearby

Air Quality

  Air Quality AQ Index Pollutant
Not available.

Snow Depth

Station Depth Elevation

Earthquake Activity

City Distance Mag. Time & Date
Minimum magnitude displayed is 2.5.

Coastal Water Temperatures

Place Temperature

Stations

Nearby Weather Stations

Station Location Temp. Windchill Dew Point Humidity Wind Precip. Elev Updated Type